sensor_id;sensor_type;location;lat;lon;timestamp;P1;durP1;ratioP1;P2;durP2;ratioP2
30729;SDS011;17476;48.458;7.928;2023-05-07T00:00:03;0.20;;;0.20;;
30729;SDS011;17476;48.458;7.928;2023-05-07T00:02:33;0.20;;;0.20;;
30729;SDS011;17476;48.458;7.928;2023-05-07T00:05:00;0.20;;;0.20;;
30729;SDS011;17476;48.458;7.928;2023-05-07T00:07:27;0.23;;;0.23;;
30729;SDS011;17476;48.458;7.928;2023-05-07T00:09:53;0.10;;;0.10;;
30729;SDS011;17476;48.458;7.928;2023-05-07T00:12:19;0.20;;;0.20;;
30729;SDS011;17476;48.458;7.928;2023-05-07T00:14:45;0.10;;;0.10;;
30729;SDS011;17476;48.458;7.928;2023-05-07T00:17:11;0.20;;;0.20;;
30729;SDS011;17476;48.458;7.928;2023-05-07T00:19:36;0.20;;;0.20;;
30729;SDS011;17476;48.458;7.928;2023-05-07T00:22:02;0.30;;;0.30;;
30729;SDS011;17476;48.458;7.928;2023-05-07T00:24:28;0.20;;;0.20;;
30729;SDS011;17476;48.458;7.928;2023-05-07T00:26:54;0.30;;;0.30;;
30729;SDS011;17476;48.458;7.928;2023-05-07T00:29:20;0.20;;;0.20;;
30729;SDS011;17476;48.458;7.928;2023-05-07T00:31:46;0.20;;;0.20;;
30729;SDS011;17476;48.458;7.928;2023-05-07T00:34:11;0.20;;;0.20;;
30729;SDS011;17476;48.458;7.928;2023-05-07T00:36:37;0.20;;;0.20;;
30729;SDS011;17476;48.458;7.928;2023-05-07T00:39:03;0.20;;;0.20;;
30729;SDS011;17476;48.458;7.928;2023-05-07T00:41:29;0.20;;;0.20;;
30729;SDS011;17476;48.458;7.928;2023-05-07T00:43:58;0.23;;;0.23;;
30729;SDS011;17476;48.458;7.928;2023-05-07T00:46:24;0.30;;;0.30;;
30729;SDS011;17476;48.458;7.928;2023-05-07T00:48:50;0.23;;;0.23;;
30729;SDS011;17476;48.458;7.928;2023-05-07T00:51:17;0.10;;;0.10;;
30729;SDS011;17476;48.458;7.928;2023-05-07T00:53:43;0.20;;;0.20;;
30729;SDS011;17476;48.458;7.928;2023-05-07T00:56:10;0.17;;;0.17;;
30729;SDS011;17476;48.458;7.928;2023-05-07T00:58:36;0.20;;;0.20;;
30729;SDS011;17476;48.458;7.928;2023-05-07T01:01:03;0.20;;;0.20;;
30729;SDS011;17476;48.458;7.928;2023-05-07T01:03:28;0.20;;;0.20;;
30729;SDS011;17476;48.458;7.928;2023-05-07T01:05:55;0.10;;;0.10;;
30729;SDS011;17476;48.458;7.928;2023-05-07T01:08:24;0.20;;;0.20;;
30729;SDS011;17476;48.458;7.928;2023-05-07T01:10:53;0.20;;;0.20;;
30729;SDS011;17476;48.458;7.928;2023-05-07T01:13:20;0.20;;;0.20;;
30729;SDS011;17476;48.458;7.928;2023-05-07T01:15:46;0.20;;;0.20;;
30729;SDS011;17476;48.458;7.928;2023-05-07T01:18:12;0.20;;;0.20;;
30729;SDS011;17476;48.458;7.928;2023-05-07T01:20:38;0.20;;;0.20;;
30729;SDS011;17476;48.458;7.928;2023-05-07T01:23:05;0.27;;;0.27;;
30729;SDS011;17476;48.458;7.928;2023-05-07T01:25:32;0.20;;;0.20;;
30729;SDS011;17476;48.458;7.928;2023-05-07T01:27:58;0.30;;;0.30;;
30729;SDS011;17476;48.458;7.928;2023-05-07T01:30:27;0.23;;;0.23;;
30729;SDS011;17476;48.458;7.928;2023-05-07T01:33:01;0.10;;;0.10;;
30729;SDS011;17476;48.458;7.928;2023-05-07T01:35:38;0.10;;;0.10;;
30729;SDS011;17476;48.458;7.928;2023-05-07T01:38:08;0.10;;;0.10;;
30729;SDS011;17476;48.458;7.928;2023-05-07T01:40:34;0.20;;;0.20;;
30729;SDS011;17476;48.458;7.928;2023-05-07T01:43:01;0.10;;;0.10;;
30729;SDS011;17476;48.458;7.928;2023-05-07T01:45:28;0.20;;;0.20;;
30729;SDS011;17476;48.458;7.928;2023-05-07T01:47:57;0.10;;;0.10;;
30729;SDS011;17476;48.458;7.928;2023-05-07T01:50:23;0.27;;;0.27;;
30729;SDS011;17476;48.458;7.928;2023-05-07T01:52:51;0.13;;;0.13;;
30729;SDS011;17476;48.458;7.928;2023-05-07T01:55:17;0.10;;;0.10;;
30729;SDS011;17476;48.458;7.928;2023-05-07T01:57:44;0.13;;;0.13;;
30729;SDS011;17476;48.458;7.928;2023-05-07T02:00:10;0.30;;;0.30;;
30729;SDS011;17476;48.458;7.928;2023-05-07T02:02:36;0.20;;;0.20;;
30729;SDS011;17476;48.458;7.928;2023-05-07T02:05:03;0.13;;;0.13;;
30729;SDS011;17476;48.458;7.928;2023-05-07T02:07:30;0.10;;;0.10;;
30729;SDS011;17476;48.458;7.928;2023-05-07T02:09:55;0.20;;;0.20;;
30729;SDS011;17476;48.458;7.928;2023-05-07T02:12:22;0.17;;;0.17;;
30729;SDS011;17476;48.458;7.928;2023-05-07T02:14:48;0.20;;;0.20;;
30729;SDS011;17476;48.458;7.928;2023-05-07T02:17:15;0.20;;;0.20;;
30729;SDS011;17476;48.458;7.928;2023-05-07T02:19:40;0.30;;;0.30;;
30729;SDS011;17476;48.458;7.928;2023-05-07T02:22:06;0.30;;;0.30;;
30729;SDS011;17476;48.458;7.928;2023-05-07T02:24:32;0.17;;;0.17;;
30729;SDS011;17476;48.458;7.928;2023-05-07T02:26:58;0.30;;;0.30;;
30729;SDS011;17476;48.458;7.928;2023-05-07T02:29:24;0.30;;;0.30;;
30729;SDS011;17476;48.458;7.928;2023-05-07T02:31:50;0.20;;;0.20;;
30729;SDS011;17476;48.458;7.928;2023-05-07T02:34:18;0.20;;;0.20;;
30729;SDS011;17476;48.458;7.928;2023-05-07T02:36:44;0.20;;;0.20;;
30729;SDS011;17476;48.458;7.928;2023-05-07T02:39:11;0.20;;;0.20;;
30729;SDS011;17476;48.458;7.928;2023-05-07T02:41:38;0.20;;;0.20;;
30729;SDS011;17476;48.458;7.928;2023-05-07T02:44:04;0.20;;;0.20;;
30729;SDS011;17476;48.458;7.928;2023-05-07T02:46:30;0.20;;;0.20;;
30729;SDS011;17476;48.458;7.928;2023-05-07T02:48:56;0.20;;;0.20;;
30729;SDS011;17476;48.458;7.928;2023-05-07T02:51:22;0.17;;;0.17;;
30729;SDS011;17476;48.458;7.928;2023-05-07T02:53:48;0.30;;;0.30;;
30729;SDS011;17476;48.458;7.928;2023-05-07T02:56:14;0.20;;;0.20;;
30729;SDS011;17476;48.458;7.928;2023-05-07T02:58:40;0.10;;;0.10;;
30729;SDS011;17476;48.458;7.928;2023-05-07T03:01:07;0.20;;;0.20;;
30729;SDS011;17476;48.458;7.928;2023-05-07T03:03:34;0.20;;;0.20;;
30729;SDS011;17476;48.458;7.928;2023-05-07T03:06:00;0.20;;;0.20;;
30729;SDS011;17476;48.458;7.928;2023-05-07T03:08:26;0.20;;;0.20;;
30729;SDS011;17476;48.458;7.928;2023-05-07T03:10:52;0.20;;;0.20;;
30729;SDS011;17476;48.458;7.928;2023-05-07T03:13:18;0.20;;;0.20;;
30729;SDS011;17476;48.458;7.928;2023-05-07T03:15:44;0.20;;;0.20;;
30729;SDS011;17476;48.458;7.928;2023-05-07T03:18:10;0.20;;;0.20;;
30729;SDS011;17476;48.458;7.928;2023-05-07T03:20:36;0.20;;;0.20;;
30729;SDS011;17476;48.458;7.928;2023-05-07T03:23:02;0.30;;;0.30;;
30729;SDS011;17476;48.458;7.928;2023-05-07T03:25:28;0.20;;;0.20;;
30729;SDS011;17476;48.458;7.928;2023-05-07T03:27:56;0.20;;;0.20;;
30729;SDS011;17476;48.458;7.928;2023-05-07T03:30:22;0.30;;;0.30;;
30729;SDS011;17476;48.458;7.928;2023-05-07T03:32:48;0.17;;;0.17;;
30729;SDS011;17476;48.458;7.928;2023-05-07T03:35:15;0.30;;;0.30;;
30729;SDS011;17476;48.458;7.928;2023-05-07T03:37:42;0.10;;;0.10;;
30729;SDS011;17476;48.458;7.928;2023-05-07T03:40:07;0.20;;;0.20;;
30729;SDS011;17476;48.458;7.928;2023-05-07T03:42:35;0.20;;;0.20;;
30729;SDS011;17476;48.458;7.928;2023-05-07T03:45:01;0.20;;;0.20;;
30729;SDS011;17476;48.458;7.928;2023-05-07T03:47:27;0.20;;;0.20;;
30729;SDS011;17476;48.458;7.928;2023-05-07T03:49:53;0.20;;;0.20;;
30729;SDS011;17476;48.458;7.928;2023-05-07T03:52:19;0.20;;;0.20;;
30729;SDS011;17476;48.458;7.928;2023-05-07T03:54:49;0.20;;;0.20;;
30729;SDS011;17476;48.458;7.928;2023-05-07T03:57:15;0.10;;;0.10;;
30729;SDS011;17476;48.458;7.928;2023-05-07T03:59:41;0.30;;;0.30;;
30729;SDS011;17476;48.458;7.928;2023-05-07T04:02:07;0.10;;;0.10;;
30729;SDS011;17476;48.458;7.928;2023-05-07T04:04:32;0.20;;;0.20;;
30729;SDS011;17476;48.458;7.928;2023-05-07T04:06:58;0.10;;;0.10;;
30729;SDS011;17476;48.458;7.928;2023-05-07T04:09:25;0.30;;;0.30;;
30729;SDS011;17476;48.458;7.928;2023-05-07T04:11:51;0.20;;;0.20;;
30729;SDS011;17476;48.458;7.928;2023-05-07T04:14:17;0.30;;;0.30;;
30729;SDS011;17476;48.458;7.928;2023-05-07T04:16:43;0.20;;;0.20;;
30729;SDS011;17476;48.458;7.928;2023-05-07T04:19:08;0.20;;;0.20;;
30729;SDS011;17476;48.458;7.928;2023-05-07T04:21:34;0.20;;;0.20;;
30729;SDS011;17476;48.458;7.928;2023-05-07T04:24:00;0.20;;;0.20;;
30729;SDS011;17476;48.458;7.928;2023-05-07T04:26:28;0.10;;;0.10;;
30729;SDS011;17476;48.458;7.928;2023-05-07T04:28:54;0.20;;;0.20;;
30729;SDS011;17476;48.458;7.928;2023-05-07T04:31:20;0.20;;;0.20;;
30729;SDS011;17476;48.458;7.928;2023-05-07T04:33:46;0.20;;;0.20;;
30729;SDS011;17476;48.458;7.928;2023-05-07T04:36:12;0.30;;;0.30;;
30729;SDS011;17476;48.458;7.928;2023-05-07T04:38:37;0.20;;;0.20;;
30729;SDS011;17476;48.458;7.928;2023-05-07T04:41:05;0.20;;;0.20;;
30729;SDS011;17476;48.458;7.928;2023-05-07T04:43:32;0.20;;;0.20;;
30729;SDS011;17476;48.458;7.928;2023-05-07T04:45:58;0.20;;;0.20;;
30729;SDS011;17476;48.458;7.928;2023-05-07T04:48:23;0.10;;;0.10;;
30729;SDS011;17476;48.458;7.928;2023-05-07T04:50:50;0.20;;;0.20;;
30729;SDS011;17476;48.458;7.928;2023-05-07T04:53:19;0.20;;;0.20;;
30729;SDS011;17476;48.458;7.928;2023-05-07T04:55:46;0.30;;;0.30;;
30729;SDS011;17476;48.458;7.928;2023-05-07T04:58:12;0.20;;;0.20;;
30729;SDS011;17476;48.458;7.928;2023-05-07T05:00:38;0.20;;;0.20;;
30729;SDS011;17476;48.458;7.928;2023-05-07T05:03:05;0.20;;;0.20;;
30729;SDS011;17476;48.458;7.928;2023-05-07T05:05:32;0.10;;;0.10;;
30729;SDS011;17476;48.458;7.928;2023-05-07T05:07:58;0.20;;;0.20;;
30729;SDS011;17476;48.458;7.928;2023-05-07T05:10:23;0.20;;;0.20;;
30729;SDS011;17476;48.458;7.928;2023-05-07T05:12:50;0.10;;;0.10;;
30729;SDS011;17476;48.458;7.928;2023-05-07T05:15:16;0.20;;;0.20;;
30729;SDS011;17476;48.458;7.928;2023-05-07T05:17:41;0.20;;;0.20;;
30729;SDS011;17476;48.458;7.928;2023-05-07T05:20:07;0.10;;;0.10;;
30729;SDS011;17476;48.458;7.928;2023-05-07T05:22:35;0.20;;;0.20;;
30729;SDS011;17476;48.458;7.928;2023-05-07T05:25:01;0.10;;;0.10;;
30729;SDS011;17476;48.458;7.928;2023-05-07T05:27:27;0.10;;;0.10;;
30729;SDS011;17476;48.458;7.928;2023-05-07T05:29:54;0.20;;;0.20;;
30729;SDS011;17476;48.458;7.928;2023-05-07T05:32:20;0.13;;;0.13;;
30729;SDS011;17476;48.458;7.928;2023-05-07T05:34:45;0.20;;;0.20;;
30729;SDS011;17476;48.458;7.928;2023-05-07T05:37:12;0.10;;;0.10;;
30729;SDS011;17476;48.458;7.928;2023-05-07T05:39:38;0.20;;;0.20;;
30729;SDS011;17476;48.458;7.928;2023-05-07T05:42:04;0.10;;;0.10;;
30729;SDS011;17476;48.458;7.928;2023-05-07T05:44:30;0.20;;;0.20;;
30729;SDS011;17476;48.458;7.928;2023-05-07T05:46:56;0.20;;;0.20;;
30729;SDS011;17476;48.458;7.928;2023-05-07T05:49:24;0.13;;;0.13;;
30729;SDS011;17476;48.458;7.928;2023-05-07T05:51:50;0.20;;;0.20;;
30729;SDS011;17476;48.458;7.928;2023-05-07T05:54:16;0.20;;;0.20;;
30729;SDS011;17476;48.458;7.928;2023-05-07T05:56:42;0.10;;;0.10;;
30729;SDS011;17476;48.458;7.928;2023-05-07T05:59:08;0.20;;;0.20;;
30729;SDS011;17476;48.458;7.928;2023-05-07T06:01:34;0.17;;;0.17;;
30729;SDS011;17476;48.458;7.928;2023-05-07T06:04:00;0.20;;;0.20;;
30729;SDS011;17476;48.458;7.928;2023-05-07T06:06:25;0.10;;;0.10;;
30729;SDS011;17476;48.458;7.928;2023-05-07T06:08:52;0.20;;;0.20;;
30729;SDS011;17476;48.458;7.928;2023-05-07T06:11:18;0.10;;;0.10;;
30729;SDS011;17476;48.458;7.928;2023-05-07T06:13:43;0.10;;;0.10;;
30729;SDS011;17476;48.458;7.928;2023-05-07T06:16:09;0.10;;;0.10;;
30729;SDS011;17476;48.458;7.928;2023-05-07T06:18:35;0.07;;;0.07;;
30729;SDS011;17476;48.458;7.928;2023-05-07T06:21:01;0.10;;;0.10;;
30729;SDS011;17476;48.458;7.928;2023-05-07T06:23:27;0.00;;;0.00;;
30729;SDS011;17476;48.458;7.928;2023-05-07T06:25:53;0.00;;;0.00;;
30729;SDS011;17476;48.458;7.928;2023-05-07T06:28:19;0.10;;;0.10;;
30729;SDS011;17476;48.458;7.928;2023-05-07T06:30:45;0.20;;;0.20;;
30729;SDS011;17476;48.458;7.928;2023-05-07T06:33:10;0.10;;;0.10;;
30729;SDS011;17476;48.458;7.928;2023-05-07T06:35:36;0.10;;;0.10;;
30729;SDS011;17476;48.458;7.928;2023-05-07T06:38:02;0.10;;;0.10;;
30729;SDS011;17476;48.458;7.928;2023-05-07T06:40:28;0.20;;;0.20;;
30729;SDS011;17476;48.458;7.928;2023-05-07T06:42:54;0.00;;;0.00;;
30729;SDS011;17476;48.458;7.928;2023-05-07T06:45:20;0.00;;;0.00;;
30729;SDS011;17476;48.458;7.928;2023-05-07T06:47:45;0.20;;;0.20;;
30729;SDS011;17476;48.458;7.928;2023-05-07T06:50:11;0.10;;;0.10;;
30729;SDS011;17476;48.458;7.928;2023-05-07T06:52:37;0.17;;;0.17;;
30729;SDS011;17476;48.458;7.928;2023-05-07T06:55:03;0.10;;;0.10;;
30729;SDS011;17476;48.458;7.928;2023-05-07T06:57:30;0.20;;;0.20;;
30729;SDS011;17476;48.458;7.928;2023-05-07T06:59:56;0.10;;;0.10;;
30729;SDS011;17476;48.458;7.928;2023-05-07T07:02:21;0.10;;;0.10;;
30729;SDS011;17476;48.458;7.928;2023-05-07T07:04:47;0.10;;;0.10;;
30729;SDS011;17476;48.458;7.928;2023-05-07T07:07:13;0.10;;;0.10;;
30729;SDS011;17476;48.458;7.928;2023-05-07T07:09:39;0.00;;;0.00;;
30729;SDS011;17476;48.458;7.928;2023-05-07T07:12:05;0.10;;;0.10;;
30729;SDS011;17476;48.458;7.928;2023-05-07T07:14:31;0.00;;;0.00;;
30729;SDS011;17476;48.458;7.928;2023-05-07T07:16:56;0.00;;;0.00;;
30729;SDS011;17476;48.458;7.928;2023-05-07T07:19:22;0.10;;;0.10;;
30729;SDS011;17476;48.458;7.928;2023-05-07T07:21:49;0.07;;;0.07;;
30729;SDS011;17476;48.458;7.928;2023-05-07T07:24:14;0.10;;;0.10;;
30729;SDS011;17476;48.458;7.928;2023-05-07T07:26:44;0.10;;;0.10;;
30729;SDS011;17476;48.458;7.928;2023-05-07T07:29:10;0.10;;;0.10;;
30729;SDS011;17476;48.458;7.928;2023-05-07T07:31:36;0.03;;;0.03;;
30729;SDS011;17476;48.458;7.928;2023-05-07T07:34:02;0.10;;;0.10;;
30729;SDS011;17476;48.458;7.928;2023-05-07T07:36:27;0.10;;;0.10;;
30729;SDS011;17476;48.458;7.928;2023-05-07T07:38:53;0.10;;;0.10;;
30729;SDS011;17476;48.458;7.928;2023-05-07T07:41:19;0.10;;;0.10;;
30729;SDS011;17476;48.458;7.928;2023-05-07T07:43:46;0.00;;;0.00;;
30729;SDS011;17476;48.458;7.928;2023-05-07T07:46:12;0.10;;;0.10;;
30729;SDS011;17476;48.458;7.928;2023-05-07T07:48:38;0.10;;;0.10;;
30729;SDS011;17476;48.458;7.928;2023-05-07T07:51:04;0.10;;;0.10;;
30729;SDS011;17476;48.458;7.928;2023-05-07T07:53:29;0.10;;;0.10;;
30729;SDS011;17476;48.458;7.928;2023-05-07T07:55:55;0.00;;;0.00;;
30729;SDS011;17476;48.458;7.928;2023-05-07T07:58:21;0.10;;;0.10;;
30729;SDS011;17476;48.458;7.928;2023-05-07T08:00:47;0.10;;;0.10;;
30729;SDS011;17476;48.458;7.928;2023-05-07T08:03:13;0.10;;;0.10;;
30729;SDS011;17476;48.458;7.928;2023-05-07T08:05:41;0.10;;;0.10;;
30729;SDS011;17476;48.458;7.928;2023-05-07T08:08:07;0.10;;;0.10;;
30729;SDS011;17476;48.458;7.928;2023-05-07T08:10:34;0.07;;;0.07;;
30729;SDS011;17476;48.458;7.928;2023-05-07T08:13:00;0.10;;;0.10;;
30729;SDS011;17476;48.458;7.928;2023-05-07T08:15:26;0.00;;;0.00;;
30729;SDS011;17476;48.458;7.928;2023-05-07T08:17:52;0.00;;;0.00;;
30729;SDS011;17476;48.458;7.928;2023-05-07T08:20:18;0.10;;;0.10;;
30729;SDS011;17476;48.458;7.928;2023-05-07T08:22:44;0.10;;;0.10;;
30729;SDS011;17476;48.458;7.928;2023-05-07T08:25:10;0.00;;;0.00;;
30729;SDS011;17476;48.458;7.928;2023-05-07T08:27:36;0.00;;;0.00;;
30729;SDS011;17476;48.458;7.928;2023-05-07T08:30:02;0.10;;;0.10;;
30729;SDS011;17476;48.458;7.928;2023-05-07T08:32:29;0.10;;;0.10;;
30729;SDS011;17476;48.458;7.928;2023-05-07T08:34:55;0.10;;;0.10;;
30729;SDS011;17476;48.458;7.928;2023-05-07T08:37:21;0.10;;;0.10;;
30729;SDS011;17476;48.458;7.928;2023-05-07T08:39:46;0.10;;;0.10;;
30729;SDS011;17476;48.458;7.928;2023-05-07T08:42:12;0.10;;;0.10;;
30729;SDS011;17476;48.458;7.928;2023-05-07T08:44:41;0.10;;;0.10;;
30729;SDS011;17476;48.458;7.928;2023-05-07T08:47:14;0.10;;;0.10;;
30729;SDS011;17476;48.458;7.928;2023-05-07T08:49:39;0.00;;;0.00;;
30729;SDS011;17476;48.458;7.928;2023-05-07T08:52:06;0.00;;;0.00;;
30729;SDS011;17476;48.458;7.928;2023-05-07T08:54:32;0.07;;;0.07;;
30729;SDS011;17476;48.458;7.928;2023-05-07T08:57:01;0.00;;;0.00;;
30729;SDS011;17476;48.458;7.928;2023-05-07T08:59:27;0.10;;;0.10;;
30729;SDS011;17476;48.458;7.928;2023-05-07T09:01:53;0.10;;;0.10;;
30729;SDS011;17476;48.458;7.928;2023-05-07T09:04:19;0.10;;;0.10;;
30729;SDS011;17476;48.458;7.928;2023-05-07T09:06:45;0.10;;;0.10;;
30729;SDS011;17476;48.458;7.928;2023-05-07T09:09:16;0.10;;;0.10;;
30729;SDS011;17476;48.458;7.928;2023-05-07T09:11:43;0.00;;;0.00;;
30729;SDS011;17476;48.458;7.928;2023-05-07T09:14:09;0.00;;;0.00;;
30729;SDS011;17476;48.458;7.928;2023-05-07T09:16:35;0.10;;;0.10;;
30729;SDS011;17476;48.458;7.928;2023-05-07T09:19:01;0.10;;;0.10;;
30729;SDS011;17476;48.458;7.928;2023-05-07T09:21:26;0.00;;;0.00;;
30729;SDS011;17476;48.458;7.928;2023-05-07T09:23:53;0.00;;;0.00;;
30729;SDS011;17476;48.458;7.928;2023-05-07T09:26:21;0.10;;;0.10;;
30729;SDS011;17476;48.458;7.928;2023-05-07T09:28:48;0.00;;;0.00;;
30729;SDS011;17476;48.458;7.928;2023-05-07T09:31:14;0.00;;;0.00;;
30729;SDS011;17476;48.458;7.928;2023-05-07T09:33:40;0.00;;;0.00;;
30729;SDS011;17476;48.458;7.928;2023-05-07T09:36:08;0.00;;;0.00;;
30729;SDS011;17476;48.458;7.928;2023-05-07T09:38:35;0.00;;;0.00;;
30729;SDS011;17476;48.458;7.928;2023-05-07T09:41:03;0.00;;;0.00;;
30729;SDS011;17476;48.458;7.928;2023-05-07T09:43:38;0.00;;;0.00;;
30729;SDS011;17476;48.458;7.928;2023-05-07T09:46:06;0.00;;;0.00;;
30729;SDS011;17476;48.458;7.928;2023-05-07T09:48:38;0.00;;;0.00;;
30729;SDS011;17476;48.458;7.928;2023-05-07T09:51:11;0.00;;;0.00;;
30729;SDS011;17476;48.458;7.928;2023-05-07T09:53:47;0.00;;;0.00;;
30729;SDS011;17476;48.458;7.928;2023-05-07T09:56:15;0.00;;;0.00;;
30729;SDS011;17476;48.458;7.928;2023-05-07T09:58:43;0.00;;;0.00;;
30729;SDS011;17476;48.458;7.928;2023-05-07T10:01:10;0.00;;;0.00;;
30729;SDS011;17476;48.458;7.928;2023-05-07T10:03:37;0.00;;;0.00;;
30729;SDS011;17476;48.458;7.928;2023-05-07T10:06:08;0.00;;;0.00;;
30729;SDS011;17476;48.458;7.928;2023-05-07T10:08:35;0.00;;;0.00;;
30729;SDS011;17476;48.458;7.928;2023-05-07T10:11:03;0.00;;;0.00;;
30729;SDS011;17476;48.458;7.928;2023-05-07T10:13:30;0.00;;;0.00;;
30729;SDS011;17476;48.458;7.928;2023-05-07T10:16:01;0.00;;;0.00;;
30729;SDS011;17476;48.458;7.928;2023-05-07T10:18:31;0.00;;;0.00;;
30729;SDS011;17476;48.458;7.928;2023-05-07T10:21:07;0.00;;;0.00;;
30729;SDS011;17476;48.458;7.928;2023-05-07T10:23:45;0.00;;;0.00;;
30729;SDS011;17476;48.458;7.928;2023-05-07T10:26:23;0.10;;;0.10;;
30729;SDS011;17476;48.458;7.928;2023-05-07T10:28:57;0.10;;;0.10;;
30729;SDS011;17476;48.458;7.928;2023-05-07T10:31:36;0.00;;;0.00;;
30729;SDS011;17476;48.458;7.928;2023-05-07T10:34:37;0.00;;;0.00;;
30729;SDS011;17476;48.458;7.928;2023-05-07T10:37:09;0.03;;;0.03;;
30729;SDS011;17476;48.458;7.928;2023-05-07T10:39:36;0.00;;;0.00;;
30729;SDS011;17476;48.458;7.928;2023-05-07T10:42:12;0.00;;;0.00;;
30729;SDS011;17476;48.458;7.928;2023-05-07T10:44:39;0.00;;;0.00;;
30729;SDS011;17476;48.458;7.928;2023-05-07T10:47:09;0.00;;;0.00;;
30729;SDS011;17476;48.458;7.928;2023-05-07T10:50:22;0.00;;;0.00;;
30729;SDS011;17476;48.458;7.928;2023-05-07T10:52:28;0.00;;;0.00;;
30729;SDS011;17476;48.458;7.928;2023-05-07T10:57:42;0.00;;;0.00;;
30729;SDS011;17476;48.458;7.928;2023-05-07T11:05:24;0.00;;;0.00;;
30729;SDS011;17476;48.458;7.928;2023-05-07T11:07:58;0.00;;;0.00;;
30729;SDS011;17476;48.458;7.928;2023-05-07T11:13:17;0.00;;;0.00;;
30729;SDS011;17476;48.458;7.928;2023-05-07T11:16:03;0.00;;;0.00;;
30729;SDS011;17476;48.458;7.928;2023-05-07T11:18:45;0.00;;;0.00;;
30729;SDS011;17476;48.458;7.928;2023-05-07T11:21:31;0.00;;;0.00;;
30729;SDS011;17476;48.458;7.928;2023-05-07T11:24:08;0.00;;;0.00;;
30729;SDS011;17476;48.458;7.928;2023-05-07T11:26:41;0.00;;;0.00;;
30729;SDS011;17476;48.458;7.928;2023-05-07T11:29:20;0.00;;;0.00;;
30729;SDS011;17476;48.458;7.928;2023-05-07T11:31:50;0.05;;;0.05;;
30729;SDS011;17476;48.458;7.928;2023-05-07T11:34:24;0.00;;;0.00;;
30729;SDS011;17476;48.458;7.928;2023-05-07T11:36:51;0.00;;;0.00;;
30729;SDS011;17476;48.458;7.928;2023-05-07T11:39:24;0.10;;;0.10;;
30729;SDS011;17476;48.458;7.928;2023-05-07T11:41:51;0.00;;;0.00;;
30729;SDS011;17476;48.458;7.928;2023-05-07T11:44:17;0.00;;;0.00;;
30729;SDS011;17476;48.458;7.928;2023-05-07T11:46:43;0.03;;;0.03;;
30729;SDS011;17476;48.458;7.928;2023-05-07T11:49:10;0.00;;;0.00;;
30729;SDS011;17476;48.458;7.928;2023-05-07T11:51:36;0.00;;;0.00;;
30729;SDS011;17476;48.458;7.928;2023-05-07T11:54:04;0.00;;;0.00;;
30729;SDS011;17476;48.458;7.928;2023-05-07T11:56:34;0.00;;;0.00;;
30729;SDS011;17476;48.458;7.928;2023-05-07T11:59:04;0.00;;;0.00;;
30729;SDS011;17476;48.458;7.928;2023-05-07T12:01:30;0.00;;;0.00;;
30729;SDS011;17476;48.458;7.928;2023-05-07T12:03:55;0.10;;;0.10;;
30729;SDS011;17476;48.458;7.928;2023-05-07T12:06:21;0.03;;;0.03;;
30729;SDS011;17476;48.458;7.928;2023-05-07T12:08:47;0.07;;;0.07;;
30729;SDS011;17476;48.458;7.928;2023-05-07T12:11:14;0.10;;;0.10;;
30729;SDS011;17476;48.458;7.928;2023-05-07T12:13:47;0.00;;;0.00;;
30729;SDS011;17476;48.458;7.928;2023-05-07T12:16:13;0.10;;;0.10;;
30729;SDS011;17476;48.458;7.928;2023-05-07T12:18:39;0.03;;;0.03;;
30729;SDS011;17476;48.458;7.928;2023-05-07T12:21:06;0.10;;;0.10;;
30729;SDS011;17476;48.458;7.928;2023-05-07T12:23:33;0.00;;;0.00;;
30729;SDS011;17476;48.458;7.928;2023-05-07T12:26:01;0.10;;;0.10;;
30729;SDS011;17476;48.458;7.928;2023-05-07T12:28:27;0.00;;;0.00;;
30729;SDS011;17476;48.458;7.928;2023-05-07T12:30:53;0.10;;;0.10;;
30729;SDS011;17476;48.458;7.928;2023-05-07T12:33:25;0.10;;;0.10;;
30729;SDS011;17476;48.458;7.928;2023-05-07T12:35:53;0.10;;;0.10;;
30729;SDS011;17476;48.458;7.928;2023-05-07T12:38:21;0.00;;;0.00;;
30729;SDS011;17476;48.458;7.928;2023-05-07T12:40:48;0.00;;;0.00;;
30729;SDS011;17476;48.458;7.928;2023-05-07T12:43:24;0.00;;;0.00;;
30729;SDS011;17476;48.458;7.928;2023-05-07T12:45:54;0.10;;;0.10;;
30729;SDS011;17476;48.458;7.928;2023-05-07T12:48:25;0.00;;;0.00;;
30729;SDS011;17476;48.458;7.928;2023-05-07T12:50:54;0.10;;;0.10;;
30729;SDS011;17476;48.458;7.928;2023-05-07T12:53:27;0.10;;;0.10;;
30729;SDS011;17476;48.458;7.928;2023-05-07T12:55:56;0.10;;;0.10;;
30729;SDS011;17476;48.458;7.928;2023-05-07T12:58:25;0.00;;;0.00;;
30729;SDS011;17476;48.458;7.928;2023-05-07T13:00:58;0.00;;;0.00;;
30729;SDS011;17476;48.458;7.928;2023-05-07T13:03:27;0.00;;;0.00;;
30729;SDS011;17476;48.458;7.928;2023-05-07T13:05:58;0.00;;;0.00;;
30729;SDS011;17476;48.458;7.928;2023-05-07T13:08:27;0.10;;;0.10;;
30729;SDS011;17476;48.458;7.928;2023-05-07T13:10:55;0.10;;;0.10;;
30729;SDS011;17476;48.458;7.928;2023-05-07T13:13:22;0.00;;;0.00;;
30729;SDS011;17476;48.458;7.928;2023-05-07T13:15:48;0.10;;;0.10;;
30729;SDS011;17476;48.458;7.928;2023-05-07T13:18:14;0.00;;;0.00;;
30729;SDS011;17476;48.458;7.928;2023-05-07T13:20:39;0.10;;;0.10;;
30729;SDS011;17476;48.458;7.928;2023-05-07T13:23:05;0.10;;;0.10;;
30729;SDS011;17476;48.458;7.928;2023-05-07T13:25:31;0.10;;;0.10;;
30729;SDS011;17476;48.458;7.928;2023-05-07T13:27:57;0.00;;;0.00;;
30729;SDS011;17476;48.458;7.928;2023-05-07T13:30:23;0.00;;;0.00;;
30729;SDS011;17476;48.458;7.928;2023-05-07T13:32:49;0.00;;;0.00;;
30729;SDS011;17476;48.458;7.928;2023-05-07T13:35:15;0.00;;;0.00;;
30729;SDS011;17476;48.458;7.928;2023-05-07T13:37:41;0.10;;;0.10;;
30729;SDS011;17476;48.458;7.928;2023-05-07T13:40:07;0.10;;;0.10;;
30729;SDS011;17476;48.458;7.928;2023-05-07T13:42:34;0.00;;;0.00;;
30729;SDS011;17476;48.458;7.928;2023-05-07T13:45:00;0.00;;;0.00;;
30729;SDS011;17476;48.458;7.928;2023-05-07T13:47:28;0.10;;;0.10;;
30729;SDS011;17476;48.458;7.928;2023-05-07T13:49:53;0.00;;;0.00;;
30729;SDS011;17476;48.458;7.928;2023-05-07T13:52:19;0.10;;;0.10;;
30729;SDS011;17476;48.458;7.928;2023-05-07T13:54:45;0.17;;;0.17;;
30729;SDS011;17476;48.458;7.928;2023-05-07T13:57:11;0.10;;;0.10;;
30729;SDS011;17476;48.458;7.928;2023-05-07T13:59:37;0.10;;;0.10;;
30729;SDS011;17476;48.458;7.928;2023-05-07T14:02:03;0.10;;;0.10;;
30729;SDS011;17476;48.458;7.928;2023-05-07T14:04:30;0.10;;;0.10;;
30729;SDS011;17476;48.458;7.928;2023-05-07T14:06:55;0.07;;;0.07;;
30729;SDS011;17476;48.458;7.928;2023-05-07T14:09:21;0.00;;;0.00;;
30729;SDS011;17476;48.458;7.928;2023-05-07T14:11:47;0.03;;;0.03;;
30729;SDS011;17476;48.458;7.928;2023-05-07T14:14:16;0.00;;;0.00;;
30729;SDS011;17476;48.458;7.928;2023-05-07T14:16:43;0.00;;;0.00;;
30729;SDS011;17476;48.458;7.928;2023-05-07T14:19:10;0.10;;;0.10;;
30729;SDS011;17476;48.458;7.928;2023-05-07T14:21:37;0.07;;;0.07;;
30729;SDS011;17476;48.458;7.928;2023-05-07T14:24:03;0.00;;;0.00;;
30729;SDS011;17476;48.458;7.928;2023-05-07T14:26:34;0.10;;;0.10;;
30729;SDS011;17476;48.458;7.928;2023-05-07T14:29:00;0.00;;;0.00;;
30729;SDS011;17476;48.458;7.928;2023-05-07T14:31:26;0.10;;;0.10;;
30729;SDS011;17476;48.458;7.928;2023-05-07T14:33:51;0.10;;;0.10;;
30729;SDS011;17476;48.458;7.928;2023-05-07T14:36:18;0.10;;;0.10;;
30729;SDS011;17476;48.458;7.928;2023-05-07T14:38:46;0.10;;;0.10;;
30729;SDS011;17476;48.458;7.928;2023-05-07T14:41:12;0.10;;;0.10;;
30729;SDS011;17476;48.458;7.928;2023-05-07T14:43:38;0.03;;;0.03;;
30729;SDS011;17476;48.458;7.928;2023-05-07T14:46:04;0.10;;;0.10;;
30729;SDS011;17476;48.458;7.928;2023-05-07T14:48:29;0.10;;;0.10;;
30729;SDS011;17476;48.458;7.928;2023-05-07T14:50:55;0.10;;;0.10;;
30729;SDS011;17476;48.458;7.928;2023-05-07T14:53:21;0.10;;;0.10;;
30729;SDS011;17476;48.458;7.928;2023-05-07T14:55:48;0.07;;;0.07;;
30729;SDS011;17476;48.458;7.928;2023-05-07T14:58:14;0.10;;;0.10;;